createdAt,value
2022-11-03T00:01:56.766Z,67.04
2022-11-03T00:04:23.993Z,67.15
2022-11-03T00:06:54.558Z,67.47
2022-11-03T00:09:23.633Z,67.86
2022-11-03T00:11:51.923Z,68.01
2022-11-03T00:14:18.987Z,68.01
2022-11-03T00:16:45.793Z,67.91
2022-11-03T00:19:13.650Z,68.08
2022-11-03T00:21:40.299Z,67.85
2022-11-03T00:24:07.388Z,68.09
2022-11-03T00:26:36.732Z,68.00
2022-11-03T00:29:12.801Z,67.58
2022-11-03T00:31:43.638Z,67.74
2022-11-03T00:34:11.284Z,67.62
2022-11-03T00:36:41.635Z,67.99
2022-11-03T00:39:08.824Z,67.94
2022-11-03T00:41:36.427Z,67.86
2022-11-03T00:44:03.609Z,67.83
2022-11-03T00:46:30.462Z,68.60
2022-11-03T00:48:57.065Z,68.33
2022-11-03T00:51:27.361Z,68.31
2022-11-03T00:53:56.906Z,68.74
2022-11-03T00:56:36.989Z,68.84
2022-11-03T00:59:05.566Z,68.64
2022-11-03T01:01:46.557Z,68.52
2022-11-03T01:04:34.824Z,68.56
2022-11-03T01:07:02.830Z,68.37
2022-11-03T01:09:33.095Z,68.40
2022-11-03T01:12:08.703Z,68.28
2022-11-03T01:14:43.873Z,68.23
2022-11-03T01:17:25.843Z,68.11
2022-11-03T01:19:53.601Z,67.83
2022-11-03T01:22:22.266Z,68.16
2022-11-03T01:24:48.876Z,67.75
2022-11-03T01:27:19.253Z,68.16
2022-11-03T01:29:46.317Z,67.98
2022-11-03T01:32:12.793Z,67.86
2022-11-03T01:34:39.769Z,67.89
2022-11-03T01:37:06.695Z,68.38
2022-11-03T01:39:33.657Z,68.83
2022-11-03T01:42:00.461Z,68.54
2022-11-03T01:44:48.243Z,68.42
2022-11-03T01:47:32.958Z,68.72
2022-11-03T01:50:14.416Z,69.10
2022-11-03T01:52:46.708Z,69.42
2022-11-03T01:55:24.488Z,69.82
2022-11-03T01:58:02.491Z,69.98
2022-11-03T02:00:28.989Z,69.86
2022-11-03T02:02:55.506Z,69.49
2022-11-03T02:05:26.567Z,69.52
2022-11-03T02:08:02.183Z,68.95
2022-11-03T02:10:28.673Z,69.23
2022-11-03T02:12:55.374Z,69.52
2022-11-03T02:15:23.857Z,69.80
2022-11-03T02:17:53.993Z,69.03
2022-11-03T02:20:32.898Z,69.18
2022-11-03T02:23:14.350Z,68.91
2022-11-03T02:25:57.910Z,68.78
2022-11-03T02:28:32.310Z,68.14
2022-11-03T02:31:23.612Z,68.04
2022-11-03T02:34:08.213Z,68.34
2022-11-03T02:36:51.237Z,68.38
2022-11-03T02:39:38.609Z,68.55
2022-11-03T02:42:07.545Z,68.88
2022-11-03T02:44:36.819Z,68.99
2022-11-03T02:47:11.169Z,69.05
2022-11-03T02:49:53.300Z,69.33
2022-11-03T02:52:47.247Z,69.20
2022-11-03T02:55:41.130Z,68.97
2022-11-03T02:58:59.261Z,69.42
2022-11-03T03:01:46.994Z,69.09
2022-11-03T03:04:39.484Z,69.25
2022-11-03T03:07:14.064Z,69.27
2022-11-03T03:09:51.349Z,69.58
2022-11-03T03:12:21.846Z,69.52
2022-11-03T03:14:50.917Z,69.75
2022-11-03T03:17:33.980Z,69.11
2022-11-03T03:20:31.260Z,69.56
2022-11-03T03:23:14.039Z,69.97
2022-11-03T03:25:58.073Z,70.58
2022-11-03T03:28:43.189Z,70.22
2022-11-03T03:31:14.517Z,70.04
2022-11-03T03:33:47.542Z,69.94
2022-11-03T03:36:18.929Z,69.85
2022-11-03T03:39:02.548Z,70.58
2022-11-03T03:41:32.622Z,70.49
2022-11-03T03:44:05.574Z,70.54
2022-11-03T03:46:40.956Z,70.77
2022-11-03T03:49:08.337Z,71.44
2022-11-03T03:51:36.638Z,71.54
2022-11-03T03:54:03.357Z,71.39
2022-11-03T03:56:38.995Z,70.71
2022-11-03T03:59:05.472Z,70.77
2022-11-03T04:01:32.020Z,70.38
2022-11-03T04:03:58.528Z,70.05
2022-11-03T04:06:24.984Z,69.89
2022-11-03T04:08:51.409Z,69.64
2022-11-03T04:11:36.373Z,69.76
2022-11-03T04:14:21.580Z,69.85
2022-11-03T04:17:07.012Z,69.75
2022-11-03T04:19:52.086Z,69.82
2022-11-03T04:22:18.634Z,69.46
2022-11-03T04:24:51.561Z,69.50
2022-11-03T04:27:35.025Z,69.23
2022-11-03T04:30:22.044Z,69.53
2022-11-03T04:32:51.465Z,69.98
2022-11-03T04:35:25.864Z,69.81
2022-11-03T04:38:09.704Z,69.63
2022-11-03T04:40:36.282Z,69.55
2022-11-03T04:43:10.965Z,70.18
2022-11-03T04:45:38.225Z,70.72
2022-11-03T04:48:14.636Z,70.72
2022-11-03T04:50:46.594Z,70.82
2022-11-03T04:53:16.869Z,70.93
2022-11-03T04:55:45.909Z,70.84
2022-11-03T04:58:43.047Z,70.37
2022-11-03T05:01:17.277Z,70.90
2022-11-03T05:03:54.142Z,71.52
2022-11-03T05:06:29.542Z,70.98
2022-11-03T05:09:01.943Z,70.94
2022-11-03T05:11:41.328Z,70.88
2022-11-03T05:14:19.969Z,70.99
2022-11-03T05:16:48.677Z,71.32
2022-11-03T05:19:28.813Z,71.18
2022-11-03T05:21:58.996Z,72.13
2022-11-03T05:24:26.414Z,72.02
2022-11-03T05:26:57.721Z,71.27
2022-11-03T05:29:35.451Z,71.67
2022-11-03T05:32:02.050Z,71.86
2022-11-03T05:34:41.185Z,72.14
2022-11-03T05:37:27.072Z,72.44
2022-11-03T05:39:59.410Z,72.16
2022-11-03T05:42:37.766Z,72.78
2022-11-03T05:45:26.677Z,73.04
2022-11-03T05:47:56.997Z,72.89
2022-11-03T05:50:27.233Z,71.96
2022-11-03T05:53:06.436Z,72.08
2022-11-03T05:55:37.280Z,71.95
2022-11-03T05:58:27.492Z,72.10
2022-11-03T06:00:55.186Z,71.69
2022-11-03T06:03:27.772Z,71.18
2022-11-03T06:05:56.907Z,71.79
2022-11-03T06:08:30.573Z,71.11
2022-11-03T06:10:59.944Z,71.16
2022-11-03T06:13:38.245Z,70.98
2022-11-03T06:16:36.125Z,70.62
2022-11-03T06:19:18.809Z,70.90
2022-11-03T06:21:46.760Z,71.09
2022-11-03T06:24:16.817Z,71.26
2022-11-03T06:26:46.628Z,71.28
2022-11-03T06:29:19.845Z,71.31
2022-11-03T06:31:53.018Z,71.15
2022-11-03T06:34:25.347Z,71.39
2022-11-03T06:36:51.834Z,71.24
2022-11-03T06:39:24.241Z,71.88
2022-11-03T06:41:51.590Z,71.45
2022-11-03T06:44:29.027Z,71.36
2022-11-03T06:47:01.620Z,71.00
2022-11-03T06:49:34.569Z,70.89
2022-11-03T06:52:31.420Z,70.80
2022-11-03T06:55:18.770Z,71.02
2022-11-03T06:57:50.208Z,70.81
2022-11-03T07:00:34.577Z,70.89
2022-11-03T07:03:13.923Z,70.85
2022-11-03T07:05:40.893Z,70.61
2022-11-03T07:08:23.734Z,70.44
2022-11-03T07:11:01.019Z,70.56
2022-11-03T07:13:32.494Z,70.01
2022-11-03T07:15:59.303Z,70.26
2022-11-03T07:18:33.978Z,70.02
2022-11-03T07:21:15.822Z,69.86
2022-11-03T07:23:44.758Z,70.74
2022-11-03T07:26:13.701Z,70.38
2022-11-03T07:28:40.233Z,70.55
2022-11-03T07:31:38.650Z,70.30
2022-11-03T07:34:12.965Z,70.22
2022-11-03T07:36:39.475Z,70.89
2022-11-03T07:39:12.397Z,71.34
2022-11-03T07:41:38.884Z,71.13
2022-11-03T07:44:13.876Z,70.97
2022-11-03T07:46:40.372Z,70.84
2022-11-03T07:49:29.996Z,71.16
2022-11-03T07:51:59.434Z,71.68
2022-11-03T07:54:32.356Z,71.71
2022-11-03T07:57:06.008Z,72.54
2022-11-03T07:59:42.599Z,72.66
2022-11-03T08:02:31.612Z,72.40
2022-11-03T08:04:59.300Z,72.89
2022-11-03T08:07:26.067Z,72.21
2022-11-03T08:09:52.607Z,72.10
2022-11-03T08:12:19.549Z,71.75
2022-11-03T08:14:46.340Z,71.11
2022-11-03T08:17:14.435Z,71.04
2022-11-03T08:19:41.497Z,71.34
2022-11-03T08:22:07.986Z,71.92
2022-11-03T08:24:34.445Z,71.55
2022-11-03T08:27:00.933Z,71.42
2022-11-03T08:29:27.393Z,72.67
2022-11-03T08:31:55.264Z,71.56
2022-11-03T08:34:21.936Z,71.27
2022-11-03T08:36:48.393Z,71.74
2022-11-03T08:39:14.868Z,71.64
2022-11-03T08:41:41.370Z,71.76
2022-11-03T08:44:07.956Z,72.06
2022-11-03T08:46:35.163Z,72.00
2022-11-03T08:49:01.669Z,72.02
2022-11-03T08:51:28.159Z,71.32
2022-11-03T08:53:55.081Z,71.76
2022-11-03T08:56:22.516Z,71.08
2022-11-03T08:58:49.734Z,71.28
2022-11-03T09:01:16.335Z,71.50
2022-11-03T09:03:43.331Z,71.48
2022-11-03T09:06:10.438Z,71.43
2022-11-03T09:11:23.603Z,71.44
2022-11-03T09:13:50.043Z,70.64
2022-11-03T09:16:17.059Z,70.37
2022-11-03T09:18:43.759Z,70.40
2022-11-03T09:21:10.213Z,70.70
2022-11-03T09:23:36.676Z,69.76
2022-11-03T09:26:03.177Z,69.61
2022-11-03T09:28:29.605Z,70.16
2022-11-03T09:30:56.089Z,70.37
2022-11-03T09:33:22.560Z,70.00
2022-11-03T09:35:49.084Z,69.60
2022-11-03T09:38:15.525Z,70.05
2022-11-03T09:40:42.068Z,69.63
2022-11-03T09:43:09.148Z,69.25
2022-11-03T09:45:35.900Z,69.52
2022-11-03T09:48:02.457Z,69.28
2022-11-03T09:50:28.966Z,69.04
2022-11-03T09:52:57.379Z,68.56
2022-11-03T09:55:26.913Z,68.27
2022-11-03T09:58:00.617Z,68.84
2022-11-03T10:00:27.333Z,68.41
2022-11-03T10:02:55.607Z,67.56
2022-11-03T10:05:31.273Z,67.26
2022-11-03T10:08:03.203Z,67.28
2022-11-03T10:10:31.582Z,67.01
2022-11-03T10:13:00.933Z,67.19
2022-11-03T10:15:28.034Z,66.24
2022-11-03T10:17:55.744Z,66.27
2022-11-03T10:20:23.103Z,65.40
2022-11-03T10:22:55.100Z,64.94
2022-11-03T10:25:38.239Z,64.72
2022-11-03T10:28:22.305Z,63.55
2022-11-03T10:31:19.879Z,64.31
2022-11-03T10:33:54.714Z,64.79
2022-11-03T10:36:30.134Z,65.14
2022-11-03T10:38:57.588Z,65.22
2022-11-03T10:41:28.581Z,64.75
2022-11-03T10:44:19.623Z,64.31
2022-11-03T10:47:01.533Z,64.46
2022-11-03T10:49:34.659Z,63.92
2022-11-03T10:52:29.791Z,62.90
2022-11-03T10:54:59.248Z,63.30
2022-11-03T10:57:27.677Z,62.99
2022-11-03T10:59:55.378Z,62.18
2022-11-03T11:02:28.511Z,61.68
2022-11-03T11:05:01.526Z,60.82
2022-11-03T11:07:39.975Z,60.35
2022-11-03T11:10:31.290Z,59.22
2022-11-03T11:13:17.876Z,59.55
2022-11-03T11:15:46.758Z,60.80
2022-11-03T11:18:39.150Z,59.38
2022-11-03T11:21:40.828Z,59.65
2022-11-03T11:24:11.478Z,60.64
2022-11-03T11:26:39.556Z,60.56
2022-11-03T11:29:08.833Z,60.28
2022-11-03T11:31:43.031Z,60.74
2022-11-03T11:34:09.596Z,60.06
2022-11-03T11:36:38.741Z,59.65
2022-11-03T11:39:24.773Z,58.81
2022-11-03T11:42:19.347Z,58.27
2022-11-03T11:44:54.995Z,59.06
2022-11-03T11:47:49.413Z,58.32
2022-11-03T11:50:36.405Z,56.96
2022-11-03T11:53:10.951Z,57.91
2022-11-03T11:55:50.833Z,58.88
2022-11-03T11:58:29.216Z,58.49
2022-11-03T12:01:00.356Z,58.46
2022-11-03T12:03:34.820Z,57.62
2022-11-03T12:06:01.954Z,57.29
2022-11-03T12:08:31.678Z,57.08
2022-11-03T12:11:04.507Z,56.90
2022-11-03T12:13:51.089Z,57.24
2022-11-03T12:16:35.338Z,56.48
2022-11-03T12:19:40.385Z,55.72
2022-11-03T12:22:13.078Z,56.01
2022-11-03T12:24:49.639Z,55.90
2022-11-03T12:27:20.917Z,57.44
2022-11-03T12:29:47.426Z,57.83
2022-11-03T12:32:32.420Z,57.41
2022-11-03T12:35:00.469Z,57.55
2022-11-03T12:37:26.985Z,57.54
2022-11-03T12:39:53.503Z,57.03
2022-11-03T12:42:20.949Z,56.61
2022-11-03T12:44:47.490Z,56.10
2022-11-03T12:47:13.933Z,55.98
2022-11-03T12:49:40.440Z,55.78
2022-11-03T12:52:08.622Z,56.06
2022-11-03T12:54:35.464Z,56.29
2022-11-03T12:57:02.367Z,56.41
2022-11-03T12:59:29.210Z,56.63
2022-11-03T13:01:55.892Z,56.63
2022-11-03T13:04:22.501Z,57.13
2022-11-03T13:06:49.059Z,56.96
2022-11-03T13:09:15.524Z,56.59
2022-11-03T13:12:00.749Z,56.42
2022-11-03T13:14:27.365Z,56.20
2022-11-03T13:16:53.878Z,56.06
2022-11-03T13:19:20.374Z,56.14
2022-11-03T13:21:46.837Z,56.19
2022-11-03T13:24:13.310Z,56.34
2022-11-03T13:26:39.785Z,56.36
2022-11-03T13:29:06.252Z,56.55
2022-11-03T13:31:32.750Z,57.12
2022-11-03T13:33:59.193Z,56.82
2022-11-03T13:36:25.702Z,56.79
2022-11-03T13:38:52.439Z,56.43
2022-11-03T13:41:18.887Z,56.34
2022-11-03T13:43:45.376Z,56.48
2022-11-03T13:46:12.772Z,56.26
2022-11-03T13:51:25.996Z,57.23
2022-11-03T13:59:25.874Z,57.03
2022-11-03T14:07:11.514Z,56.34
2022-11-03T14:09:37.993Z,56.45
2022-11-03T14:12:23.110Z,56.56
2022-11-03T14:14:49.549Z,56.74
2022-11-03T14:17:15.989Z,56.98
2022-11-03T14:19:47.350Z,57.07
2022-11-03T14:22:17.410Z,56.97
2022-11-03T14:24:44.339Z,57.01
2022-11-03T14:27:10.854Z,56.94
2022-11-03T14:29:37.302Z,57.13
2022-11-03T14:32:03.891Z,57.56
2022-11-03T14:34:30.543Z,57.49
2022-11-03T14:36:57.167Z,57.63
2022-11-03T14:39:23.726Z,57.65
2022-11-03T14:42:05.310Z,58.01
2022-11-03T14:44:38.864Z,57.79
2022-11-03T14:47:08.972Z,58.02
2022-11-03T14:49:36.543Z,58.22
2022-11-03T14:52:05.957Z,58.20
2022-11-03T14:54:32.688Z,58.29
2022-11-03T14:56:59.387Z,58.50
2022-11-03T14:59:26.351Z,58.64
2022-11-03T15:01:54.671Z,58.44
2022-11-03T15:04:22.382Z,58.29
2022-11-03T15:06:49.549Z,58.43
2022-11-03T15:09:16.558Z,58.35
2022-11-03T15:11:44.585Z,58.63
2022-11-03T15:14:12.261Z,58.98
2022-11-03T15:16:40.209Z,58.91
2022-11-03T15:19:08.099Z,58.86
2022-11-03T15:21:34.710Z,58.91
2022-11-03T15:26:47.927Z,59.50
2022-11-03T15:29:14.538Z,59.64
2022-11-03T15:31:46.199Z,59.71
2022-11-03T15:34:15.089Z,59.32
2022-11-03T15:36:41.563Z,59.20
2022-11-03T15:39:08.016Z,59.25
2022-11-03T15:41:34.480Z,59.84
2022-11-03T15:44:00.907Z,60.62
2022-11-03T15:46:27.393Z,61.01
2022-11-03T15:48:56.301Z,61.00
2022-11-03T15:51:23.031Z,61.05
2022-11-03T15:53:53.471Z,61.36
2022-11-03T15:56:23.293Z,61.54
2022-11-03T15:58:49.754Z,61.89
2022-11-03T16:01:16.400Z,62.38
2022-11-03T16:03:42.888Z,63.12
2022-11-03T16:06:09.336Z,63.52
2022-11-03T16:08:35.818Z,64.27
2022-11-03T16:11:02.285Z,64.18
2022-11-03T16:13:28.768Z,64.93
2022-11-03T16:15:55.213Z,65.82
2022-11-03T16:18:22.098Z,65.79
2022-11-03T16:20:48.549Z,66.06
2022-11-03T16:23:15.234Z,66.30
2022-11-03T16:25:41.656Z,66.33
2022-11-03T16:28:08.518Z,66.63
2022-11-03T16:30:35.357Z,66.52
2022-11-03T16:33:02.081Z,66.96
2022-11-03T16:35:29.565Z,67.06
2022-11-03T16:37:56.320Z,66.76
2022-11-03T16:40:23.588Z,67.28
2022-11-03T16:42:50.098Z,66.84
2022-11-03T16:45:23.628Z,66.24
2022-11-03T16:47:50.819Z,66.93
2022-11-03T16:50:18.469Z,67.20
2022-11-03T16:52:47.866Z,67.68
2022-11-03T16:55:15.897Z,68.04
2022-11-03T16:57:43.006Z,68.58
2022-11-03T17:00:16.427Z,67.76
2022-11-03T17:02:44.304Z,68.45
2022-11-03T17:05:13.029Z,68.68
2022-11-03T17:07:39.817Z,68.47
2022-11-03T17:10:07.941Z,69.17
2022-11-03T17:12:34.502Z,69.21
2022-11-03T17:15:00.951Z,68.86
2022-11-03T17:17:27.531Z,68.62
2022-11-03T17:19:54.043Z,69.28
2022-11-03T17:22:22.203Z,70.00
2022-11-03T17:24:49.519Z,69.45
2022-11-03T17:27:45.832Z,70.31
2022-11-03T17:30:31.070Z,70.49
2022-11-03T17:33:06.451Z,69.94
2022-11-03T17:35:39.796Z,70.46
2022-11-03T17:38:15.139Z,70.54
2022-11-03T17:40:45.174Z,70.09
2022-11-03T17:43:24.489Z,70.27
2022-11-03T17:45:51.401Z,70.64
2022-11-03T17:48:18.004Z,70.35
2022-11-03T17:50:50.415Z,70.30
2022-11-03T17:53:30.938Z,69.73
2022-11-03T17:58:47.370Z,70.13
2022-11-03T18:01:22.831Z,69.26
2022-11-03T18:03:49.389Z,69.82
2022-11-03T18:06:19.206Z,69.89
2022-11-03T18:08:48.266Z,69.60
2022-11-03T18:11:42.555Z,69.83
2022-11-03T18:14:09.189Z,70.35
2022-11-03T18:16:35.714Z,69.67
2022-11-03T18:19:02.265Z,69.33
2022-11-03T18:21:30.146Z,70.14
2022-11-03T18:23:56.779Z,70.33
2022-11-03T18:26:26.772Z,70.19
2022-11-03T18:28:54.062Z,70.67
2022-11-03T18:31:34.050Z,70.80
2022-11-03T18:34:06.447Z,70.91
2022-11-03T18:36:36.419Z,71.36
2022-11-03T18:39:04.479Z,71.42
2022-11-03T18:41:40.718Z,71.24
2022-11-03T18:44:19.353Z,70.67
2022-11-03T18:46:47.146Z,70.77
2022-11-03T18:49:14.985Z,70.86
2022-11-03T18:51:49.146Z,70.77
2022-11-03T18:54:21.518Z,71.09
2022-11-03T18:56:49.598Z,70.98
2022-11-03T18:59:25.562Z,70.57
2022-11-03T19:01:52.971Z,70.96
2022-11-03T19:04:19.876Z,70.84
2022-11-03T19:06:49.274Z,70.74
2022-11-03T19:09:21.073Z,70.38
2022-11-03T19:11:50.290Z,70.33
2022-11-03T19:14:28.274Z,70.72
2022-11-03T19:19:44.649Z,70.54
2022-11-03T19:22:17.328Z,70.82
2022-11-03T19:24:45.034Z,70.72
2022-11-03T19:27:19.907Z,70.88
2022-11-03T19:29:48.059Z,70.63
2022-11-03T19:32:24.865Z,70.57
2022-11-03T19:35:18.407Z,71.24
2022-11-03T19:37:48.141Z,70.75
2022-11-03T19:40:20.258Z,71.13
2022-11-03T19:42:48.598Z,70.93
2022-11-03T19:45:18.806Z,71.25
2022-11-03T19:48:22.532Z,71.09
2022-11-03T19:50:41.730Z,71.24
2022-11-03T19:53:08.241Z,71.42
2022-11-03T19:55:40.260Z,71.13
2022-11-03T19:58:23.458Z,70.68
2022-11-03T20:00:51.494Z,71.27
2022-11-03T20:03:18.188Z,71.33
2022-11-03T20:05:49.605Z,71.60
2022-11-03T20:08:21.981Z,71.57
2022-11-03T20:10:48.990Z,71.58
2022-11-03T20:13:21.762Z,71.88
2022-11-03T20:15:48.621Z,71.75
2022-11-03T20:18:15.853Z,71.91
2022-11-03T20:20:47.994Z,72.63
2022-11-03T20:23:25.564Z,72.36
2022-11-03T20:25:52.573Z,72.11
2022-11-03T20:28:24.838Z,72.21
2022-11-03T20:30:53.111Z,71.58
2022-11-03T20:33:22.906Z,72.00
2022-11-03T20:35:53.398Z,71.75
2022-11-03T20:38:21.080Z,72.14
2022-11-03T20:40:51.181Z,71.96
2022-11-03T20:43:39.606Z,71.56
2022-11-03T20:46:35.459Z,71.75
2022-11-03T20:49:01.952Z,71.50
2022-11-03T20:51:34.831Z,71.71
2022-11-03T20:54:15.490Z,71.87
2022-11-03T20:56:42.332Z,71.77
2022-11-03T20:59:17.420Z,71.90
2022-11-03T21:01:44.886Z,72.03
2022-11-03T21:04:15.389Z,72.24
2022-11-03T21:06:42.902Z,72.10
2022-11-03T21:09:17.722Z,72.74
2022-11-03T21:11:46.653Z,72.27
2022-11-03T21:14:18.290Z,72.29
2022-11-03T21:17:03.253Z,72.35
2022-11-03T21:20:01.143Z,72.19
2022-11-03T21:22:53.813Z,72.61
2022-11-03T21:25:22.330Z,73.25
2022-11-03T21:27:51.764Z,72.72
2022-11-03T21:30:19.137Z,72.85
2022-11-03T21:32:46.084Z,72.99
2022-11-03T21:35:17.826Z,72.75
2022-11-03T21:37:44.288Z,73.09
2022-11-03T21:40:11.860Z,72.99
2022-11-03T21:42:56.933Z,73.19
2022-11-03T21:45:23.464Z,73.13
2022-11-03T21:48:13.225Z,73.10
2022-11-03T21:50:40.620Z,73.30
2022-11-03T21:53:07.468Z,72.69
2022-11-03T21:55:34.350Z,73.02
2022-11-03T21:58:02.560Z,73.13
2022-11-03T22:00:29.307Z,72.83
2022-11-03T22:02:55.979Z,72.48
2022-11-03T22:05:22.718Z,72.97
2022-11-03T22:07:49.182Z,73.08
2022-11-03T22:10:15.785Z,73.40
2022-11-03T22:12:42.235Z,73.75
2022-11-03T22:15:27.905Z,73.19
2022-11-03T22:18:04.198Z,72.91
2022-11-03T22:20:49.397Z,72.65
2022-11-03T22:23:34.649Z,72.87
2022-11-03T22:26:20.089Z,73.49
2022-11-03T22:29:06.536Z,72.90
2022-11-03T22:31:42.003Z,73.86
2022-11-03T22:34:27.024Z,73.51
2022-11-03T22:36:53.533Z,73.92
2022-11-03T22:39:38.732Z,73.38
2022-11-03T22:42:23.868Z,73.67
2022-11-03T22:45:09.186Z,73.42
2022-11-03T22:47:35.632Z,73.78
2022-11-03T22:50:02.055Z,74.07
2022-11-03T22:52:28.501Z,73.60
2022-11-03T22:54:54.942Z,73.96
2022-11-03T22:57:21.538Z,73.16
2022-11-03T22:59:47.964Z,72.92
2022-11-03T23:02:14.470Z,72.88
2022-11-03T23:04:40.927Z,73.13
2022-11-03T23:07:07.365Z,73.73
2022-11-03T23:09:33.817Z,73.45
2022-11-03T23:12:00.266Z,73.06
2022-11-03T23:14:46.664Z,73.33
2022-11-03T23:17:13.155Z,74.34
2022-11-03T23:19:58.460Z,73.54
2022-11-03T23:22:24.905Z,74.06
2022-11-03T23:25:00.479Z,73.60
2022-11-03T23:27:27.926Z,73.34
2022-11-03T23:29:54.477Z,73.21
2022-11-03T23:32:20.924Z,73.86
2022-11-03T23:34:47.388Z,73.36
2022-11-03T23:37:14.202Z,73.60
2022-11-03T23:39:40.737Z,73.26
2022-11-03T23:42:07.442Z,73.27
2022-11-03T23:44:53.890Z,73.44
2022-11-03T23:47:39.095Z,73.02
2022-11-03T23:50:06.156Z,73.18
2022-11-03T23:52:32.585Z,73.45
2022-11-03T23:54:59.017Z,73.39
2022-11-03T23:57:44.045Z,73.39
